Time;durP1;ratioP1;P1;durP2;ratioP2;P2;SDS_P1;SDS_P2;PMS_P1;PMS_P2;Temp;Humidity;BMP_temperature;BMP_pressure;BME280_temperature;BME280_humidity;BME280_pressure;Samples;Min_cycle;Max_cycle;Signal;HPM_P1;HPM_P2
2023/06/23 00:00:30;;;;;;;6.65;2.22;;;21.20;73.40;;;;;;5028259;28;20032;-65
2023/06/23 00:02:56;;;;;;;3.58;1.48;;;21.10;73.50;;;;;;5025290;28;20048;-65
2023/06/23 00:05:22;;;;;;;4.95;1.50;;;21.10;73.40;;;;;;5029962;28;20029;-64
2023/06/23 00:07:48;;;;;;;3.00;1.80;;;21.10;73.30;;;;;;5031859;28;20230;-64
2023/06/23 00:10:14;;;;;;;3.20;1.70;;;21.00;73.40;;;;;;5029557;28;20060;-65
2023/06/23 00:12:43;;;;;;;2.13;1.50;;;21.00;73.30;;;;;;5024105;28;20026;-64
2023/06/23 00:15:12;;;;;;;2.67;1.50;;;21.00;73.40;;;;;;5029017;28;20037;-65
2023/06/23 00:17:39;;;;;;;2.20;1.42;;;21.00;73.40;;;;;;5030223;28;20033;-65
2023/06/23 00:20:10;;;;;;;2.75;1.50;;;20.90;73.50;;;;;;5031132;28;20040;-65
2023/06/23 00:22:36;;;;;;;2.33;1.40;;;20.90;73.70;;;;;;5031604;28;20116;-63
2023/06/23 00:25:03;;;;;;;2.17;1.58;;;20.90;73.80;;;;;;5031301;28;20072;-65
2023/06/23 00:27:29;;;;;;;1.70;1.20;;;20.90;74.10;;;;;;5026269;28;20061;-63
2023/06/23 00:29:54;;;;;;;2.30;1.50;;;20.80;74.40;;;;;;5034465;28;20068;-64
2023/06/23 00:32:20;;;;;;;2.05;1.40;;;20.80;74.60;;;;;;5027325;28;20090;-64
2023/06/23 00:34:45;;;;;;;1.83;1.52;;;20.80;74.60;;;;;;5024666;28;20025;-64
2023/06/23 00:37:11;;;;;;;2.85;1.80;;;20.80;74.90;;;;;;5028094;28;20516;-63
2023/06/23 00:39:37;;;;;;;2.30;1.58;;;20.80;75.10;;;;;;5030130;28;20419;-63
2023/06/23 00:42:08;;;;;;;1.52;1.40;;;20.80;75.20;;;;;;5029681;28;20073;-63
2023/06/23 00:44:34;;;;;;;2.05;1.70;;;20.80;75.60;;;;;;5030226;28;20033;-65
2023/06/23 00:47:01;;;;;;;2.38;1.50;;;20.70;75.30;;;;;;5031326;28;20124;-63
2023/06/23 00:49:26;;;;;;;1.95;1.50;;;20.70;75.50;;;;;;5029822;28;20052;-63
2023/06/23 00:51:53;;;;;;;1.67;1.50;;;20.70;75.60;;;;;;5028496;28;20034;-63
2023/06/23 00:54:20;;;;;;;2.15;1.42;;;20.70;76.30;;;;;;5030581;28;20037;-63
2023/06/23 00:56:48;;;;;;;2.33;1.60;;;20.60;75.80;;;;;;5033062;28;20028;-64
2023/06/23 00:59:14;;;;;;;1.98;1.73;;;20.60;76.60;;;;;;5031625;28;20040;-64
2023/06/23 01:01:40;;;;;;;2.33;1.60;;;20.50;75.60;;;;;;5019845;28;20048;-62
2023/06/23 01:04:08;;;;;;;3.92;1.80;;;20.50;75.70;;;;;;5028541;28;21916;-64
2023/06/23 01:06:39;;;;;;;1.77;1.67;;;20.50;75.90;;;;;;5030909;28;20535;-63
2023/06/23 01:09:50;;;;;;;1.80;1.58;;;20.40;76.50;;;;;;5029818;28;20188;-64
2023/06/23 01:12:47;;;;;;;2.38;1.70;;;20.30;77.10;;;;;;5024915;28;20033;-61
2023/06/23 01:15:33;;;;;;;3.63;1.90;;;20.30;77.30;;;;;;5026288;28;20033;-63
2023/06/23 01:18:19;;;;;;;2.47;1.73;;;20.20;76.90;;;;;;5026766;28;20072;-64
2023/06/23 01:20:47;;;;;;;2.47;1.85;;;20.10;77.70;;;;;;5029634;28;20040;-63
2023/06/23 01:23:45;;;;;;;2.97;1.80;;;20.10;77.20;;;;;;5025086;28;20040;-62
2023/06/23 01:26:42;;;;;;;2.00;1.80;;;20.10;78.40;;;;;;5032617;28;20614;-62
2023/06/23 01:29:09;;;;;;;1.92;1.70;;;20.00;78.70;;;;;;5027102;28;20170;-63
2023/06/23 01:31:48;;;;;;;2.35;1.90;;;20.00;77.70;;;;;;5026026;28;20040;-63
2023/06/23 01:34:20;;;;;;;2.85;1.98;;;19.90;78.60;;;;;;5024258;28;20036;-63
2023/06/23 01:36:51;;;;;;;2.58;1.80;;;19.90;78.30;;;;;;5029360;28;20041;-63
2023/06/23 01:39:19;;;;;;;3.80;1.88;;;19.90;78.40;;;;;;5026073;28;20459;-63
2023/06/23 01:41:52;;;;;;;2.65;1.80;;;19.80;78.60;;;;;;5032275;28;20572;-63
2023/06/23 01:44:22;;;;;;;2.17;1.98;;;19.80;78.70;;;;;;5030402;28;20416;-64
2023/06/23 01:46:52;;;;;;;2.13;1.92;;;19.80;78.80;;;;;;5033162;28;20057;-63
2023/06/23 01:49:24;;;;;;;3.53;2.10;;;19.80;79.20;;;;;;5031175;28;20498;-63
2023/06/23 01:51:52;;;;;;;1.73;1.63;;;19.80;80.30;;;;;;5033234;28;20552;-62
2023/06/23 01:54:20;;;;;;;2.15;1.90;;;19.70;79.30;;;;;;5033976;28;20431;-63
2023/06/23 01:56:47;;;;;;;1.80;1.70;;;19.70;79.40;;;;;;5033316;28;20029;-62
2023/06/23 01:59:14;;;;;;;3.03;1.42;;;19.70;79.40;;;;;;5035165;28;20408;-63
2023/06/23 02:01:42;;;;;;;2.03;1.83;;;19.70;79.50;;;;;;5030821;28;20132;-63
2023/06/23 02:04:09;;;;;;;2.58;1.92;;;19.70;79.80;;;;;;5028117;28;20042;-62
2023/06/23 02:06:37;;;;;;;2.40;1.98;;;19.70;79.80;;;;;;5033562;28;20049;-62
2023/06/23 02:09:06;;;;;;;1.90;1.67;;;19.70;80.10;;;;;;5031700;28;20144;-62
2023/06/23 02:11:32;;;;;;;1.88;1.70;;;19.70;80.30;;;;;;5026404;28;20025;-63
2023/06/23 02:13:59;;;;;;;2.95;1.80;;;19.70;80.50;;;;;;5031260;28;20041;-64
2023/06/23 02:16:27;;;;;;;2.03;1.77;;;19.70;80.60;;;;;;5030907;28;20029;-62
2023/06/23 02:18:56;;;;;;;1.90;1.70;;;19.70;80.90;;;;;;5028057;28;20032;-63
2023/06/23 02:21:23;;;;;;;2.15;1.65;;;19.70;81.00;;;;;;5032968;28;20045;-61
2023/06/23 02:23:51;;;;;;;2.33;1.75;;;19.60;81.00;;;;;;5031748;28;20030;-64
2023/06/23 02:26:17;;;;;;;1.70;1.60;;;19.60;81.20;;;;;;5031150;28;20034;-64
2023/06/23 02:28:49;;;;;;;1.60;1.50;;;19.60;81.30;;;;;;5036708;28;20579;-63
2023/06/23 02:31:20;;;;;;;1.63;1.52;;;19.60;81.50;;;;;;5031937;28;20037;-63
2023/06/23 02:33:46;;;;;;;1.55;1.45;;;19.60;81.80;;;;;;5029087;28;20036;-63
2023/06/23 02:36:14;;;;;;;1.40;1.30;;;19.60;81.90;;;;;;5028508;28;20037;-63
2023/06/23 02:38:42;;;;;;;1.30;1.20;;;19.60;82.30;;;;;;5026961;28;20039;-64
2023/06/23 02:41:09;;;;;;;1.40;1.30;;;19.60;82.20;;;;;;5028456;28;20124;-63
2023/06/23 02:43:47;;;;;;;1.25;1.15;;;19.60;82.60;;;;;;5030150;28;20037;-62
2023/06/23 02:46:15;;;;;;;1.25;1.15;;;19.50;83.70;;;;;;5030468;28;20443;-62
2023/06/23 02:48:43;;;;;;;2.45;1.15;;;19.50;84.00;;;;;;5027299;28;20439;-63
2023/06/23 02:51:14;;;;;;;1.42;1.13;;;19.50;83.60;;;;;;5026761;28;20033;-62
2023/06/23 02:53:48;;;;;;;1.08;0.95;;;19.40;83.90;;;;;;5033291;28;20536;-63
2023/06/23 02:56:21;;;;;;;2.58;0.98;;;19.50;84.20;;;;;;5029823;28;20060;-61
2023/06/23 02:58:49;;;;;;;1.13;1.02;;;19.40;84.60;;;;;;5034027;28;20163;-61
2023/06/23 03:01:16;;;;;;;1.00;0.90;;;19.40;84.20;;;;;;5027159;28;20083;-63
2023/06/23 03:03:42;;;;;;;1.85;0.88;;;19.40;84.50;;;;;;5032138;28;20440;-62
2023/06/23 03:06:21;;;;;;;1.23;0.70;;;19.40;84.70;;;;;;5026137;28;20059;-63
2023/06/23 03:08:47;;;;;;;1.17;0.50;;;19.40;86.40;;;;;;5033293;28;20041;-63
2023/06/23 03:11:18;;;;;;;0.80;0.50;;;19.40;85.30;;;;;;5027446;28;20040;-62
2023/06/23 03:13:44;;;;;;;0.80;0.50;;;19.40;85.90;;;;;;5030348;28;20025;-62
2023/06/23 03:16:42;;;;;;;0.90;0.70;;;19.40;85.60;;;;;;5027777;28;20524;-63
2023/06/23 03:19:28;;;;;;;0.98;0.90;;;19.40;86.70;;;;;;5030420;28;20041;-62
2023/06/23 03:22:26;;;;;;;2.85;1.30;;;19.40;85.80;;;;;;5027572;28;20119;-63
2023/06/23 03:24:56;;;;;;;1.40;1.30;;;19.40;86.60;;;;;;5031141;28;20061;-62
2023/06/23 03:27:24;;;;;;;1.65;1.20;;;19.30;85.50;;;;;;5026489;28;20037;-62
2023/06/23 03:30:02;;;;;;;1.50;1.40;;;19.30;85.70;;;;;;5030714;28;20116;-62
2023/06/23 03:32:34;;;;;;;1.50;1.40;;;19.30;86.30;;;;;;5025268;28;20037;-60
2023/06/23 03:35:04;;;;;;;1.50;1.40;;;19.20;85.90;;;;;;5027328;28;20041;-62
2023/06/23 03:37:32;;;;;;;1.65;1.55;;;19.20;86.00;;;;;;5025827;28;20037;-62
2023/06/23 03:40:06;;;;;;;1.90;1.60;;;19.20;85.90;;;;;;5027834;28;20048;-61
2023/06/23 03:42:36;;;;;;;2.00;1.75;;;19.20;86.30;;;;;;5027477;28;20056;-62
2023/06/23 03:45:06;;;;;;;1.60;1.50;;;19.20;86.40;;;;;;5030657;28;20048;-63
2023/06/23 03:47:33;;;;;;;1.80;1.70;;;19.20;86.60;;;;;;5029206;28;20111;-62
2023/06/23 03:50:08;;;;;;;2.03;1.67;;;19.20;86.40;;;;;;5030369;28;20051;-61
2023/06/23 03:52:36;;;;;;;1.70;1.60;;;19.20;86.40;;;;;;5026981;28;20091;-62
2023/06/23 03:55:02;;;;;;;3.50;1.60;;;19.20;86.40;;;;;;5031290;28;20033;-62
2023/06/23 03:57:31;;;;;;;2.63;1.63;;;19.20;86.30;;;;;;5030036;28;20034;-62
2023/06/23 03:59:57;;;;;;;2.20;1.60;;;19.20;86.30;;;;;;5031505;28;20041;-62
2023/06/23 04:02:24;;;;;;;1.63;1.52;;;19.10;86.40;;;;;;5026245;28;20560;-62
2023/06/23 04:04:55;;;;;;;1.90;1.80;;;19.20;86.40;;;;;;5025724;28;20114;-62
2023/06/23 04:07:23;;;;;;;2.45;1.70;;;19.20;86.50;;;;;;5028451;28;20041;-63
2023/06/23 04:09:51;;;;;;;1.88;1.60;;;19.10;86.50;;;;;;5031329;28;20045;-60
2023/06/23 04:12:19;;;;;;;2.78;2.20;;;19.10;86.60;;;;;;5022664;28;20159;-62
2023/06/23 04:14:47;;;;;;;2.00;1.90;;;19.10;86.60;;;;;;5029016;28;20037;-62
2023/06/23 04:17:15;;;;;;;2.00;1.90;;;19.10;86.60;;;;;;5030009;28;20484;-60
2023/06/23 04:19:44;;;;;;;2.20;2.00;;;19.10;86.50;;;;;;5032494;28;20036;-61
2023/06/23 04:22:14;;;;;;;2.03;1.83;;;19.10;86.60;;;;;;5032231;28;20048;-61
2023/06/23 04:24:40;;;;;;;1.90;1.70;;;19.10;86.40;;;;;;5026199;28;20528;-60
2023/06/23 04:27:07;;;;;;;2.00;1.90;;;19.00;86.40;;;;;;5028491;28;20044;-62
2023/06/23 04:29:36;;;;;;;2.40;2.20;;;19.10;86.60;;;;;;5031390;28;20068;-61
2023/06/23 04:32:02;;;;;;;2.15;1.98;;;19.10;86.90;;;;;;5033599;28;20218;-62
2023/06/23 04:34:28;;;;;;;2.70;2.50;;;19.10;86.80;;;;;;5033604;28;20719;-62
2023/06/23 04:37:08;;;;;;;3.10;2.40;;;19.10;86.70;;;;;;5034169;28;20548;-60
2023/06/23 04:39:43;;;;;;;3.70;2.63;;;19.10;87.60;;;;;;5031942;28;20132;-61
2023/06/23 04:42:12;;;;;;;3.45;2.88;;;19.10;87.20;;;;;;5032881;28;20033;-62
2023/06/23 04:44:50;;;;;;;2.78;2.58;;;19.10;86.60;;;;;;5032057;28;20042;-61
2023/06/23 04:47:21;;;;;;;3.40;3.10;;;19.10;86.70;;;;;;5031024;28;20040;-61
2023/06/23 04:49:52;;;;;;;3.58;3.28;;;19.10;86.70;;;;;;5033213;28;20037;-61
2023/06/23 04:52:20;;;;;;;3.45;3.10;;;19.10;86.70;;;;;;5032558;28;20033;-61
2023/06/23 04:54:49;;;;;;;3.33;3.13;;;19.20;86.70;;;;;;5033063;28;20044;-61
2023/06/23 04:57:21;;;;;;;3.40;3.10;;;19.20;86.80;;;;;;5032403;28;20044;-61
2023/06/23 05:00:00;;;;;;;3.65;3.30;;;19.30;86.90;;;;;;5033916;28;20037;-61
2023/06/23 05:02:28;;;;;;;4.20;3.63;;;19.30;87.00;;;;;;5030510;28;20041;-62
2023/06/23 05:04:55;;;;;;;3.95;3.50;;;19.30;86.70;;;;;;5033343;28;20041;-61
2023/06/23 05:07:23;;;;;;;4.00;3.60;;;19.30;86.60;;;;;;5032388;28;20025;-62
2023/06/23 05:09:50;;;;;;;4.20;3.80;;;19.40;86.60;;;;;;5032518;28;20029;-62
2023/06/23 05:12:19;;;;;;;3.88;3.47;;;19.40;86.60;;;;;;5025964;28;20073;-62
2023/06/23 05:14:47;;;;;;;4.25;3.85;;;19.40;86.60;;;;;;5032589;28;20107;-63
2023/06/23 05:17:15;;;;;;;4.57;4.18;;;19.50;86.70;;;;;;5032870;28;20392;-62
2023/06/23 05:19:43;;;;;;;4.55;4.15;;;19.50;86.60;;;;;;5037207;28;20033;-62
2023/06/23 05:22:13;;;;;;;4.97;4.40;;;19.50;86.50;;;;;;5037250;28;20707;-62
2023/06/23 05:24:45;;;;;;;4.85;4.40;;;19.50;86.30;;;;;;5035952;28;20043;-61
2023/06/23 05:27:13;;;;;;;4.43;4.13;;;19.50;86.20;;;;;;5038326;28;20041;-62
2023/06/23 05:29:43;;;;;;;4.40;3.97;;;19.60;86.20;;;;;;5037628;28;20052;-62
2023/06/23 05:32:15;;;;;;;4.40;4.00;;;19.60;86.20;;;;;;5037700;28;20034;-62
2023/06/23 05:34:42;;;;;;;4.28;3.88;;;19.60;86.20;;;;;;5036680;28;20052;-61
2023/06/23 05:37:09;;;;;;;6.43;5.00;;;19.60;85.60;;;;;;5036649;28;20128;-63
2023/06/23 05:39:38;;;;;;;5.45;4.95;;;19.70;85.10;;;;;;5036191;28;20099;-63
2023/06/23 05:42:04;;;;;;;5.20;4.80;;;19.70;85.00;;;;;;5036353;28;20520;-62
2023/06/23 05:44:30;;;;;;;5.63;5.13;;;19.70;84.70;;;;;;5034672;28;20547;-61
2023/06/23 05:46:59;;;;;;;5.22;4.72;;;19.70;84.40;;;;;;5034902;28;20069;-61
2023/06/23 05:49:27;;;;;;;6.20;5.28;;;19.70;84.60;;;;;;5036164;28;20382;-62
2023/06/23 05:51:56;;;;;;;6.97;5.57;;;19.70;84.50;;;;;;5034859;28;20029;-60
2023/06/23 05:54:23;;;;;;;7.05;6.05;;;19.70;84.50;;;;;;5034959;28;20037;-62
2023/06/23 05:56:53;;;;;;;8.85;6.40;;;19.70;84.30;;;;;;5036598;28;20036;-62
2023/06/23 05:59:30;;;;;;;7.22;6.50;;;19.70;84.30;;;;;;5036625;28;20065;-62
2023/06/23 06:01:59;;;;;;;7.50;6.80;;;19.80;84.10;;;;;;5035558;28;20037;-60
2023/06/23 06:04:29;;;;;;;8.77;6.70;;;19.70;83.60;;;;;;5034905;28;20033;-62
2023/06/23 06:06:57;;;;;;;8.48;6.28;;;19.80;83.60;;;;;;5036268;28;20033;-61
2023/06/23 06:09:26;;;;;;;7.97;7.18;;;19.70;83.20;;;;;;5036179;28;20060;-61
2023/06/23 06:11:54;;;;;;;9.10;7.43;;;19.80;82.70;;;;;;5028846;28;20045;-62
2023/06/23 06:14:22;;;;;;;9.30;7.22;;;19.80;82.70;;;;;;5033906;28;20040;-62
2023/06/23 06:16:50;;;;;;;8.25;7.38;;;19.90;82.90;;;;;;5035502;28;20403;-62
2023/06/23 06:19:20;;;;;;;9.07;7.85;;;19.90;82.70;;;;;;5036405;28;20037;-62
2023/06/23 06:21:48;;;;;;;8.82;7.90;;;19.90;82.40;;;;;;5036632;28;20041;-61
2023/06/23 06:24:15;;;;;;;8.57;7.68;;;19.90;82.20;;;;;;5034953;28;20052;-62
2023/06/23 06:26:43;;;;;;;10.50;7.60;;;19.90;82.10;;;;;;5036653;28;20029;-62
2023/06/23 06:29:11;;;;;;;9.48;8.48;;;19.90;82.20;;;;;;5038021;28;20255;-62
2023/06/23 06:31:37;;;;;;;10.25;8.23;;;19.90;82.40;;;;;;5034340;28;20443;-61
2023/06/23 06:34:05;;;;;;;10.20;9.10;;;20.00;82.50;;;;;;5034550;28;20041;-62
2023/06/23 06:36:34;;;;;;;11.75;8.98;;;20.00;82.40;;;;;;5035807;28;20037;-62
2023/06/23 06:39:01;;;;;;;12.32;9.93;;;20.10;82.30;;;;;;5035721;28;20450;-61
2023/06/23 06:41:30;;;;;;;11.80;10.35;;;20.10;82.30;;;;;;5034097;28;20068;-61
2023/06/23 06:43:57;;;;;;;13.38;10.80;;;20.20;82.50;;;;;;5033996;28;20033;-60
2023/06/23 06:46:23;;;;;;;13.30;10.48;;;20.20;82.00;;;;;;5034695;28;20074;-62
2023/06/23 06:48:50;;;;;;;14.43;11.82;;;20.30;81.90;;;;;;5036901;28;20034;-62
2023/06/23 06:51:19;;;;;;;13.73;11.27;;;20.30;81.50;;;;;;5036168;28;20405;-62
2023/06/23 06:53:46;;;;;;;14.52;11.85;;;20.30;81.60;;;;;;5036832;28;20065;-63
2023/06/23 06:56:13;;;;;;;14.73;11.57;;;20.40;81.40;;;;;;5036366;28;20117;-63
2023/06/23 06:58:40;;;;;;;15.95;12.00;;;20.50;81.20;;;;;;5034613;28;20228;-60
2023/06/23 07:01:06;;;;;;;14.40;12.50;;;20.50;81.30;;;;;;5035421;28;20048;-62
2023/06/23 07:03:33;;;;;;;15.38;12.52;;;20.50;80.80;;;;;;5034904;28;20030;-62
2023/06/23 07:05:59;;;;;;;15.35;12.85;;;20.60;80.90;;;;;;5035367;28;20044;-62
2023/06/23 07:08:24;;;;;;;14.07;12.55;;;20.60;81.00;;;;;;5036719;28;20033;-62
2023/06/23 07:10:50;;;;;;;16.15;13.05;;;20.70;80.90;;;;;;5027558;28;20509;-63
2023/06/23 07:13:16;;;;;;;15.65;12.77;;;20.80;79.80;;;;;;5031030;28;20051;-63
2023/06/23 07:15:41;;;;;;;18.80;14.18;;;20.70;80.10;;;;;;5033983;28;20034;-62
2023/06/23 07:18:07;;;;;;;16.25;13.20;;;20.80;79.00;;;;;;5036148;28;20048;-61
2023/06/23 07:20:32;;;;;;;15.10;13.15;;;20.90;79.30;;;;;;5033928;28;20045;-62
2023/06/23 07:22:58;;;;;;;17.23;14.95;;;20.90;79.30;;;;;;5035024;28;20029;-63
2023/06/23 07:25:23;;;;;;;18.60;14.98;;;20.90;78.20;;;;;;5034344;28;20038;-62
2023/06/23 07:27:49;;;;;;;16.88;14.00;;;21.00;78.00;;;;;;5035267;28;20489;-64
2023/06/23 07:30:15;;;;;;;17.30;13.93;;;21.00;78.00;;;;;;5035862;28;20578;-64
2023/06/23 07:32:45;;;;;;;17.58;14.45;;;21.00;77.50;;;;;;5033952;28;20390;-63
2023/06/23 07:35:11;;;;;;;18.63;13.77;;;21.00;78.40;;;;;;5034891;28;20033;-63
2023/06/23 07:37:37;;;;;;;16.33;13.30;;;21.00;77.70;;;;;;5033119;28;20044;-63
2023/06/23 07:40:04;;;;;;;15.65;13.65;;;21.10;78.00;;;;;;5035214;28;20037;-63
2023/06/23 07:42:30;;;;;;;16.50;14.32;;;21.20;78.20;;;;;;5034003;28;20053;-62
2023/06/23 07:44:56;;;;;;;16.60;14.52;;;21.20;77.70;;;;;;5034789;28;20099;-63
2023/06/23 07:47:22;;;;;;;17.77;14.43;;;21.30;78.00;;;;;;5032346;28;20452;-62
2023/06/23 07:49:47;;;;;;;16.20;14.13;;;21.40;77.90;;;;;;5034646;28;20385;-63
2023/06/23 07:52:13;;;;;;;15.57;13.95;;;21.40;76.60;;;;;;5033380;28;20044;-62
2023/06/23 07:54:39;;;;;;;16.10;14.35;;;21.60;76.40;;;;;;5033211;28;20529;-63
2023/06/23 07:57:08;;;;;;;16.05;14.35;;;21.70;76.30;;;;;;5033884;28;20041;-63
2023/06/23 07:59:34;;;;;;;14.48;12.93;;;21.80;75.80;;;;;;5033242;28;20036;-64
2023/06/23 08:02:00;;;;;;;15.32;12.80;;;21.90;75.70;;;;;;5027167;28;20060;-63
2023/06/23 08:04:26;;;;;;;14.30;12.48;;;21.90;75.30;;;;;;5034428;28;20081;-64
2023/06/23 08:06:51;;;;;;;18.45;13.85;;;22.10;74.40;;;;;;5031667;28;20052;-63
2023/06/23 08:09:17;;;;;;;16.63;14.25;;;22.10;72.40;;;;;;5032801;28;20044;-63
2023/06/23 08:11:43;;;;;;;15.52;13.93;;;22.20;70.60;;;;;;5030320;28;20377;-63
2023/06/23 08:14:09;;;;;;;17.70;14.15;;;22.20;70.60;;;;;;5032108;28;20140;-64
2023/06/23 08:16:34;;;;;;;14.70;12.77;;;22.20;70.70;;;;;;5034556;28;20425;-63
2023/06/23 08:19:00;;;;;;;15.95;12.93;;;22.20;71.70;;;;;;5035184;28;20045;-64
2023/06/23 08:21:25;;;;;;;13.40;12.00;;;22.20;71.20;;;;;;5035313;28;20041;-63
2023/06/23 08:23:51;;;;;;;16.00;13.35;;;22.30;71.10;;;;;;5033818;28;20033;-63
2023/06/23 08:26:18;;;;;;;15.57;13.30;;;22.30;71.10;;;;;;5037170;28;20040;-63
2023/06/23 08:28:43;;;;;;;16.88;13.60;;;22.40;69.80;;;;;;5034691;28;20478;-63
2023/06/23 08:31:09;;;;;;;15.18;13.45;;;22.40;69.90;;;;;;5037590;28;20386;-63
2023/06/23 08:33:35;;;;;;;14.77;13.25;;;22.40;69.70;;;;;;5036090;28;20070;-63
2023/06/23 08:36:01;;;;;;;15.68;13.38;;;22.40;69.80;;;;;;5036232;28;20045;-63
2023/06/23 08:38:27;;;;;;;15.85;12.25;;;22.30;69.50;;;;;;5033659;28;20091;-64
2023/06/23 08:40:53;;;;;;;14.60;13.10;;;22.30;70.20;;;;;;5032586;28;20053;-63
2023/06/23 08:43:26;;;;;;;13.68;11.68;;;22.30;70.10;;;;;;5033884;28;20045;-64
2023/06/23 08:45:59;;;;;;;13.65;11.75;;;22.30;70.20;;;;;;5037217;28;20029;-63
2023/06/23 08:48:27;;;;;;;14.05;11.85;;;22.30;69.70;;;;;;5036013;28;20037;-64
2023/06/23 08:51:00;;;;;;;15.23;13.63;;;22.40;70.20;;;;;;5033192;28;20040;-63
2023/06/23 08:53:26;;;;;;;16.77;12.90;;;22.30;69.90;;;;;;5032739;28;20120;-63
2023/06/23 08:55:53;;;;;;;15.18;13.45;;;22.40;70.00;;;;;;5035698;28;20116;-63
2023/06/23 08:58:21;;;;;;;17.00;13.98;;;22.30;69.50;;;;;;5033163;28;20136;-62
2023/06/23 09:00:49;;;;;;;15.73;13.35;;;22.30;69.30;;;;;;5030994;28;20492;-63
2023/06/23 09:03:14;;;;;;;14.05;12.55;;;22.30;69.30;;;;;;5032719;28;20386;-64
2023/06/23 09:05:43;;;;;;;14.57;13.07;;;22.30;68.50;;;;;;5034330;28;20044;-64
2023/06/23 09:08:10;;;;;;;13.10;11.70;;;22.20;67.10;;;;;;5033128;28;20124;-64
2023/06/23 09:10:36;;;;;;;12.70;11.40;;;22.20;67.00;;;;;;5030338;28;20053;-64
2023/06/23 09:13:07;;;;;;;13.32;11.85;;;22.20;66.40;;;;;;5031205;28;20550;-64
2023/06/23 09:15:36;;;;;;;13.90;12.50;;;22.10;66.20;;;;;;5033362;28;20033;-63
2023/06/23 09:18:02;;;;;;;14.18;12.25;;;22.10;66.90;;;;;;5033858;28;20057;-63
2023/06/23 09:20:29;;;;;;;13.90;12.13;;;22.10;67.10;;;;;;5033221;28;20060;-63
2023/06/23 09:22:57;;;;;;;12.18;10.98;;;22.20;66.00;;;;;;5033474;28;20225;-63
2023/06/23 09:25:43;;;;;;;13.75;10.48;;;22.20;66.00;;;;;;5031654;28;20102;-63
2023/06/23 09:28:38;;;;;;;13.50;11.20;;;22.30;64.50;;;;;;5033863;28;20421;-63
2023/06/23 09:31:15;;;;;;;13.30;11.93;;;22.40;65.10;;;;;;5029916;28;20111;-63
2023/06/23 09:33:53;;;;;;;12.05;10.82;;;22.40;64.90;;;;;;5033825;28;20033;-62
2023/06/23 09:36:19;;;;;;;12.30;10.57;;;22.50;64.50;;;;;;5032226;28;20385;-64
2023/06/23 09:38:46;;;;;;;10.15;9.15;;;22.60;63.80;;;;;;5033238;28;20033;-64
2023/06/23 09:41:18;;;;;;;10.65;9.55;;;22.60;63.10;;;;;;5035235;28;20041;-63
2023/06/23 09:43:50;;;;;;;11.18;9.18;;;22.70;62.00;;;;;;5032847;28;20560;-64
2023/06/23 09:46:17;;;;;;;9.40;8.50;;;22.70;62.70;;;;;;5030803;28;20500;-64
2023/06/23 09:48:49;;;;;;;11.43;10.23;;;22.80;63.30;;;;;;5033521;28;20052;-63
2023/06/23 09:51:15;;;;;;;10.07;9.07;;;22.90;62.90;;;;;;5034331;28;20128;-62
2023/06/23 09:53:42;;;;;;;10.35;9.35;;;22.90;62.20;;;;;;5033316;28;20050;-63
2023/06/23 09:56:15;;;;;;;10.93;9.02;;;23.00;62.20;;;;;;5034385;28;20588;-64
2023/06/23 09:58:42;;;;;;;9.88;8.73;;;23.10;61.90;;;;;;5033439;28;20065;-64
2023/06/23 10:01:10;;;;;;;10.93;8.68;;;23.20;61.30;;;;;;5032051;28;20056;-63
2023/06/23 10:03:47;;;;;;;11.32;8.43;;;23.30;61.00;;;;;;5032462;28;20041;-63
2023/06/23 10:06:22;;;;;;;7.25;6.28;;;23.40;58.60;;;;;;5036501;28;20459;-64
2023/06/23 10:08:51;;;;;;;6.28;5.65;;;23.50;58.80;;;;;;5036748;28;20042;-64
2023/06/23 10:11:18;;;;;;;8.68;6.70;;;23.60;59.00;;;;;;5032238;28;20033;-64
2023/06/23 10:13:47;;;;;;;7.53;6.60;;;23.70;58.10;;;;;;5034599;28;20045;-64
2023/06/23 10:16:13;;;;;;;7.20;6.40;;;23.80;58.00;;;;;;5038203;28;20033;-64
2023/06/23 10:18:40;;;;;;;6.82;6.20;;;23.80;58.30;;;;;;5036726;28;20051;-63
2023/06/23 10:21:06;;;;;;;6.60;6.00;;;23.80;57.20;;;;;;5036106;28;20263;-63
2023/06/23 10:23:33;;;;;;;8.00;7.13;;;23.80;57.10;;;;;;5036289;28;20045;-64
2023/06/23 10:26:00;;;;;;;7.50;6.80;;;23.90;57.00;;;;;;5038457;28;20064;-63
2023/06/23 10:28:28;;;;;;;6.60;5.75;;;23.90;57.00;;;;;;5039130;28;20128;-64
2023/06/23 10:30:54;;;;;;;7.15;5.20;;;23.90;56.90;;;;;;5037751;28;20042;-64
2023/06/23 10:33:21;;;;;;;5.32;4.82;;;23.90;56.00;;;;;;5036969;28;20059;-64
2023/06/23 10:35:48;;;;;;;6.82;6.15;;;24.00;56.60;;;;;;5034000;28;20037;-64
2023/06/23 10:38:22;;;;;;;6.38;5.78;;;24.10;54.50;;;;;;5033090;28;20029;-64
2023/06/23 10:40:50;;;;;;;6.82;6.20;;;24.10;54.20;;;;;;5034845;28;20044;-64
2023/06/23 10:43:18;;;;;;;6.22;5.63;;;24.00;55.00;;;;;;5032932;28;20036;-64
2023/06/23 10:45:44;;;;;;;7.03;6.20;;;24.00;56.00;;;;;;5032383;28;20125;-64
2023/06/23 10:48:11;;;;;;;8.05;5.80;;;24.00;55.30;;;;;;5035119;28;20068;-64
2023/06/23 10:50:38;;;;;;;6.50;5.40;;;23.90;55.40;;;;;;5036753;28;20630;-64
2023/06/23 10:53:13;;;;;;;5.82;5.30;;;23.80;56.50;;;;;;5032749;28;20096;-63
2023/06/23 10:55:41;;;;;;;5.93;4.30;;;23.80;55.10;;;;;;5034708;28;20473;-63
2023/06/23 10:58:16;;;;;;;4.70;3.90;;;23.80;55.40;;;;;;5035011;28;20033;-63
2023/06/23 11:01:00;;;;;;;3.70;3.40;;;23.80;55.30;;;;;;5033737;28;20034;-64
2023/06/23 11:03:33;;;;;;;4.38;3.97;;;23.90;53.50;;;;;;5033842;28;20065;-63
2023/06/23 11:06:04;;;;;;;4.57;3.75;;;23.90;54.00;;;;;;5033921;28;20068;-64
2023/06/23 11:08:41;;;;;;;4.55;3.80;;;23.90;54.10;;;;;;5032786;28;20041;-63
2023/06/23 11:11:08;;;;;;;5.35;4.30;;;24.00;53.30;;;;;;5023277;28;21586;-64
2023/06/23 11:13:45;;;;;;;5.95;4.80;;;24.10;54.50;;;;;;5026246;28;20045;-64
2023/06/23 11:16:16;;;;;;;5.30;4.80;;;24.10;53.90;;;;;;5025282;28;20437;-64
2023/06/23 11:18:54;;;;;;;4.50;4.10;;;24.20;53.60;;;;;;5027582;28;20041;-64
2023/06/23 11:21:38;;;;;;;5.18;3.75;;;24.30;51.90;;;;;;5032731;28;20678;-63
2023/06/23 11:24:13;;;;;;;4.65;4.25;;;24.30;51.30;;;;;;5036196;28;20054;-64
2023/06/23 11:26:49;;;;;;;4.30;3.63;;;24.20;51.90;;;;;;5036103;28;20059;-64
2023/06/23 11:29:21;;;;;;;4.95;4.20;;;24.20;52.10;;;;;;5035399;28;20544;-64
2023/06/23 11:32:11;;;;;;;4.72;4.32;;;24.20;53.10;;;;;;5033872;28;20030;-63
2023/06/23 11:34:52;;;;;;;4.03;3.65;;;24.20;53.00;;;;;;5035714;28;20056;-64
2023/06/23 11:37:18;;;;;;;4.07;3.55;;;24.20;50.70;;;;;;5033350;28;20045;-64
2023/06/23 11:39:44;;;;;;;4.45;3.95;;;24.20;50.80;;;;;;5034993;28;20680;-64
2023/06/23 11:42:10;;;;;;;3.70;3.40;;;24.10;50.90;;;;;;5036461;28;20037;-63
2023/06/23 11:44:36;;;;;;;4.57;3.80;;;24.10;51.60;;;;;;5035243;28;20049;-62
2023/06/23 11:47:02;;;;;;;4.82;4.40;;;24.00;52.00;;;;;;5034667;28;20072;-64
2023/06/23 11:49:28;;;;;;;5.13;4.32;;;23.90;52.80;;;;;;5035177;28;20060;-65
2023/06/23 11:52:04;;;;;;;3.90;3.60;;;23.90;52.80;;;;;;5034384;28;20567;-64
2023/06/23 11:54:35;;;;;;;4.40;3.42;;;23.80;52.60;;;;;;5034893;28;20121;-63
2023/06/23 11:57:03;;;;;;;4.63;3.80;;;23.80;52.40;;;;;;5033329;28;20393;-64
2023/06/23 11:59:36;;;;;;;3.85;3.53;;;23.80;52.60;;;;;;5034126;28;20040;-63
2023/06/23 12:02:02;;;;;;;3.38;3.08;;;23.80;51.40;;;;;;5034219;28;20385;-64
2023/06/23 12:04:28;;;;;;;5.38;3.45;;;23.90;51.30;;;;;;5017213;28;20037;-64
2023/06/23 12:06:54;;;;;;;3.58;3.28;;;24.00;52.10;;;;;;5035032;28;20396;-64
2023/06/23 12:09:20;;;;;;;3.53;3.20;;;24.00;52.30;;;;;;5034196;28;20552;-65
2023/06/23 12:11:50;;;;;;;3.45;3.15;;;24.10;52.00;;;;;;5027634;28;20029;-63
2023/06/23 12:14:16;;;;;;;5.95;3.30;;;24.20;52.20;;;;;;5034797;28;20516;-64
2023/06/23 12:16:41;;;;;;;3.35;3.05;;;24.40;52.10;;;;;;5032904;28;20033;-64
2023/06/23 12:19:07;;;;;;;3.47;3.25;;;24.50;51.70;;;;;;5033837;28;20697;-64
2023/06/23 12:21:36;;;;;;;3.42;3.08;;;24.60;51.40;;;;;;5034301;28;20037;-64
2023/06/23 12:24:01;;;;;;;3.88;3.58;;;24.70;51.00;;;;;;5035402;28;20261;-64
2023/06/23 12:26:27;;;;;;;4.25;3.58;;;24.80;51.90;;;;;;5034881;28;20147;-65
2023/06/23 12:29:09;;;;;;;5.22;3.65;;;24.90;51.70;;;;;;5037215;28;20135;-64
2023/06/23 12:31:34;;;;;;;3.45;3.15;;;25.00;50.50;;;;;;5032457;28;20040;-64
2023/06/23 12:34:01;;;;;;;4.07;3.67;;;25.10;51.80;;;;;;5035124;28;20033;-64
2023/06/23 12:36:27;;;;;;;3.30;3.03;;;25.10;51.40;;;;;;5032664;28;20033;-64
2023/06/23 12:38:54;;;;;;;3.38;3.08;;;25.20;50.00;;;;;;5034988;28;20048;-63
2023/06/23 12:41:20;;;;;;;2.95;2.75;;;25.30;50.40;;;;;;5034473;28;20042;-64
2023/06/23 12:43:48;;;;;;;4.43;2.80;;;25.30;49.90;;;;;;5034052;28;20500;-65
2023/06/23 12:46:15;;;;;;;4.38;3.08;;;25.20;48.50;;;;;;5032215;28;20409;-63
2023/06/23 12:48:47;;;;;;;2.90;2.53;;;25.30;48.60;;;;;;5033740;28;20040;-65
2023/06/23 12:51:13;;;;;;;3.67;2.65;;;25.20;47.50;;;;;;5032379;28;20044;-64